Time;durP1;ratioP1;P1;durP2;ratioP2;P2;SDS_P1;SDS_P2;PMS_P1;PMS_P2;Temp;Humidity;BMP_temperature;BMP_pressure;BME280_temperature;BME280_humidity;BME280_pressure;Samples;Min_cycle;Max_cycle;Signal;HPM_P1;HPM_P2
2023/06/10 00:00:59;;;;;;;10.77;4.97;;;15.50;99.90;;;;;;5206482;28;20306;-48
2023/06/10 00:03:30;;;;;;;11.07;4.60;;;15.40;99.90;;;;;;5202457;28;20187;-47
2023/06/10 00:06:01;;;;;;;6.83;4.60;;;15.40;99.90;;;;;;5205112;28;20207;-45
2023/06/10 00:08:33;;;;;;;11.80;4.57;;;15.40;99.90;;;;;;5204223;28;20191;-46
2023/06/10 00:11:04;;;;;;;9.10;4.70;;;15.40;99.90;;;;;;5185124;28;20175;-47
2023/06/10 00:13:35;;;;;;;6.17;4.03;;;15.40;99.90;;;;;;5205000;28;20496;-48
2023/06/10 00:16:06;;;;;;;12.90;4.87;;;15.40;99.90;;;;;;5187715;28;20470;-47
2023/06/10 00:18:38;;;;;;;7.13;3.93;;;15.40;99.90;;;;;;5188900;28;20445;-47
2023/06/10 00:21:09;;;;;;;14.67;5.23;;;15.40;99.90;;;;;;5200675;28;20257;-47
2023/06/10 00:23:41;;;;;;;16.57;5.10;;;15.30;99.90;;;;;;5192460;28;20434;-47
2023/06/10 00:26:11;;;;;;;10.77;4.30;;;15.30;99.90;;;;;;5209709;28;20206;-47
2023/06/10 00:28:42;;;;;;;9.80;3.90;;;15.30;99.90;;;;;;5201811;28;20434;-51
2023/06/10 00:31:13;;;;;;;5.07;3.87;;;15.30;99.90;;;;;;5200222;28;20188;-48
2023/06/10 00:33:43;;;;;;;4.30;4.00;;;15.20;99.90;;;;;;5208180;28;20476;-47
2023/06/10 00:36:14;;;;;;;11.53;5.00;;;15.20;99.90;;;;;;5201668;28;20614;-47
2023/06/10 00:38:46;;;;;;;11.33;4.37;;;15.20;99.90;;;;;;5207201;28;20250;-48
2023/06/10 00:41:17;;;;;;;4.20;3.73;;;15.30;99.90;;;;;;5170336;28;20458;-47
2023/06/10 00:43:48;;;;;;;12.80;3.90;;;15.30;99.90;;;;;;5204163;28;20192;-45
2023/06/10 00:46:20;;;;;;;8.80;4.80;;;15.30;99.90;;;;;;5198119;28;20797;-45
2023/06/10 00:48:50;;;;;;;5.47;4.10;;;15.30;99.90;;;;;;5189514;28;20175;-46
2023/06/10 00:51:22;;;;;;;3.83;3.47;;;15.20;99.90;;;;;;5185491;28;21259;-45
2023/06/10 00:53:53;;;;;;;18.90;4.80;;;15.10;99.90;;;;;;5186249;28;20219;-46
2023/06/10 00:56:25;;;;;;;18.87;5.00;;;15.10;99.90;;;;;;5185134;28;20474;-46
2023/06/10 00:58:55;;;;;;;6.93;3.83;;;15.00;99.90;;;;;;5181684;28;20446;-47
2023/06/10 01:01:26;;;;;;;7.43;4.73;;;15.00;99.90;;;;;;5195872;28;20469;-47
2023/06/10 01:03:58;;;;;;;7.70;4.50;;;14.90;99.90;;;;;;5197882;28;20211;-48
2023/06/10 01:06:50;;;;;;;10.60;4.40;;;14.80;99.90;;;;;;5187405;28;20188;-46
2023/06/10 01:09:24;;;;;;;16.50;5.93;;;14.80;99.90;;;;;;5181725;28;20453;-46
2023/06/10 01:12:25;;;;;;;6.30;4.67;;;14.80;99.90;;;;;;5200218;28;20438;-47
2023/06/10 01:14:57;;;;;;;7.93;4.47;;;14.70;99.90;;;;;;5198599;28;20471;-47
2023/06/10 01:17:28;;;;;;;14.97;4.97;;;14.70;99.90;;;;;;5202287;28;20493;-48
2023/06/10 01:19:59;;;;;;;6.70;3.97;;;14.70;99.90;;;;;;5198793;28;20536;-47
2023/06/10 01:22:32;;;;;;;11.77;4.23;;;14.60;99.90;;;;;;5202263;28;20591;-46
2023/06/10 01:25:03;;;;;;;9.83;4.67;;;14.60;99.90;;;;;;5180633;28;20207;-47
2023/06/10 01:27:39;;;;;;;12.53;4.83;;;14.50;99.90;;;;;;5202173;28;20422;-47
2023/06/10 01:30:20;;;;;;;6.20;4.20;;;14.50;99.90;;;;;;5183781;28;20438;-47
2023/06/10 01:32:52;;;;;;;9.40;4.30;;;14.50;99.90;;;;;;5173184;28;20433;-46
2023/06/10 01:35:26;;;;;;;10.40;4.70;;;14.50;99.90;;;;;;5200292;28;20477;-46
2023/06/10 01:37:58;;;;;;;9.70;4.60;;;14.50;99.90;;;;;;5206919;28;20441;-47
2023/06/10 01:40:30;;;;;;;9.33;4.97;;;14.50;99.90;;;;;;5181751;28;20446;-47
2023/06/10 01:43:01;;;;;;;13.63;5.10;;;14.40;99.90;;;;;;5204273;28;20942;-48
2023/06/10 01:45:31;;;;;;;14.97;4.13;;;14.30;99.90;;;;;;5201082;28;20486;-47
2023/06/10 01:48:02;;;;;;;15.23;4.60;;;14.30;99.90;;;;;;5184513;28;20449;-47
2023/06/10 01:50:33;;;;;;;9.60;4.63;;;14.30;99.90;;;;;;5170843;28;20625;-48
2023/06/10 01:53:05;;;;;;;7.13;3.83;;;14.30;99.90;;;;;;5204207;28;20665;-46
2023/06/10 01:55:35;;;;;;;18.77;5.47;;;14.20;99.90;;;;;;5200200;28;20533;-47
2023/06/10 01:58:06;;;;;;;9.77;4.60;;;14.20;99.90;;;;;;5197904;28;20450;-47
2023/06/10 02:00:36;;;;;;;9.20;4.50;;;14.20;99.90;;;;;;5182549;28;20183;-48
2023/06/10 02:03:07;;;;;;;4.93;4.47;;;14.20;99.90;;;;;;5201273;28;20187;-47
2023/06/10 02:05:38;;;;;;;20.23;4.80;;;14.20;99.90;;;;;;5191306;28;20210;-47
2023/06/10 02:08:09;;;;;;;9.63;4.03;;;14.20;99.90;;;;;;5206216;28;20179;-49
2023/06/10 02:10:40;;;;;;;7.23;4.30;;;14.20;99.90;;;;;;5201031;28;20445;-47
2023/06/10 02:13:11;;;;;;;11.73;4.37;;;14.10;99.90;;;;;;5210888;28;20175;-46
2023/06/10 02:15:41;;;;;;;8.63;4.50;;;14.10;99.90;;;;;;5188454;28;20461;-48
2023/06/10 02:18:12;;;;;;;7.93;4.07;;;14.10;99.90;;;;;;5205494;28;20179;-49
2023/06/10 02:20:42;;;;;;;19.33;5.60;;;14.10;99.90;;;;;;5184170;28;20195;-47
2023/06/10 02:23:13;;;;;;;8.37;4.53;;;14.10;99.90;;;;;;5205573;28;20554;-48
2023/06/10 02:25:44;;;;;;;11.10;5.40;;;14.00;99.90;;;;;;5208005;28;20214;-48
2023/06/10 02:28:15;;;;;;;8.50;4.60;;;14.00;99.90;;;;;;5205512;28;20202;-47
2023/06/10 02:30:46;;;;;;;6.57;4.20;;;14.00;99.90;;;;;;5203097;28;20171;-47
2023/06/10 02:33:17;;;;;;;9.03;4.73;;;14.00;99.90;;;;;;5200446;28;20225;-46
2023/06/10 02:35:48;;;;;;;20.40;6.10;;;14.10;99.90;;;;;;5202205;28;20504;-48
2023/06/10 02:38:19;;;;;;;9.93;4.90;;;14.00;99.90;;;;;;5200149;28;20184;-45
2023/06/10 02:40:50;;;;;;;7.27;4.17;;;14.00;99.90;;;;;;5198811;28;20172;-46
2023/06/10 02:43:21;;;;;;;12.77;5.00;;;14.00;99.90;;;;;;5187798;28;20994;-46
2023/06/10 02:45:51;;;;;;;12.70;5.17;;;14.00;99.90;;;;;;5197768;28;20201;-47
2023/06/10 02:48:24;;;;;;;10.43;4.60;;;13.90;99.90;;;;;;5218527;28;20167;-46
2023/06/10 02:50:55;;;;;;;5.33;4.77;;;13.90;99.90;;;;;;5209243;28;20185;-47
2023/06/10 02:53:26;;;;;;;4.63;4.17;;;13.90;99.90;;;;;;5170118;28;20454;-47
2023/06/10 02:55:57;;;;;;;19.37;5.90;;;13.90;99.90;;;;;;5189493;28;20465;-48
2023/06/10 02:58:27;;;;;;;14.23;5.30;;;13.90;99.90;;;;;;5207654;28;20191;-47
2023/06/10 03:00:58;;;;;;;8.23;5.30;;;13.80;99.90;;;;;;5212314;28;20601;-49
2023/06/10 03:03:30;;;;;;;11.07;4.87;;;13.90;99.90;;;;;;5208772;28;20186;-48
2023/06/10 03:06:01;;;;;;;9.00;4.80;;;13.80;99.90;;;;;;5204687;28;20194;-47
2023/06/10 03:08:32;;;;;;;9.33;4.30;;;13.90;99.90;;;;;;5192302;28;21036;-46
2023/06/10 03:11:02;;;;;;;9.00;4.63;;;13.90;99.90;;;;;;5203143;28;20849;-46
2023/06/10 03:13:34;;;;;;;13.30;5.20;;;13.90;99.90;;;;;;5207444;28;20188;-45
2023/06/10 03:16:05;;;;;;;15.70;6.07;;;13.90;99.90;;;;;;5204184;28;20235;-46
2023/06/10 03:18:35;;;;;;;11.73;5.27;;;13.90;99.90;;;;;;5206563;28;20470;-45
2023/06/10 03:21:06;;;;;;;8.60;4.87;;;13.90;99.90;;;;;;5203246;28;20302;-46
2023/06/10 03:23:37;;;;;;;22.43;5.60;;;13.90;99.90;;;;;;5210923;28;20254;-45
2023/06/10 03:26:09;;;;;;;9.67;5.77;;;13.90;99.90;;;;;;5188157;28;20191;-47
2023/06/10 03:28:40;;;;;;;14.20;4.60;;;14.00;99.90;;;;;;5200798;28;20438;-48
2023/06/10 03:31:11;;;;;;;5.30;4.30;;;14.00;99.90;;;;;;5187095;28;20456;-48
2023/06/10 03:33:42;;;;;;;10.90;5.00;;;14.00;99.90;;;;;;5204876;28;20191;-48
2023/06/10 03:36:12;;;;;;;12.77;4.80;;;14.00;99.90;;;;;;5202135;28;20210;-47
2023/06/10 03:38:43;;;;;;;14.93;5.87;;;14.00;99.90;;;;;;5204921;28;20656;-47
2023/06/10 03:41:13;;;;;;;8.60;4.70;;;14.10;99.90;;;;;;5205214;28;20683;-47
2023/06/10 03:43:44;;;;;;;9.47;4.80;;;14.10;99.90;;;;;;5187754;28;20673;-46
2023/06/10 03:46:15;;;;;;;6.00;4.80;;;14.10;99.90;;;;;;5208729;28;20195;-47
2023/06/10 03:48:45;;;;;;;13.70;6.60;;;14.20;99.90;;;;;;5209679;28;20259;-47
2023/06/10 03:51:16;;;;;;;9.70;4.40;;;14.30;99.90;;;;;;5200734;28;20184;-48
2023/06/10 03:53:47;;;;;;;9.80;5.83;;;14.30;99.90;;;;;;5201463;28;20234;-46
2023/06/10 03:56:17;;;;;;;11.50;4.87;;;14.40;99.90;;;;;;5208397;28;20278;-48
2023/06/10 03:58:48;;;;;;;13.53;4.93;;;14.50;99.90;;;;;;5188057;28;20200;-46
2023/06/10 04:01:20;;;;;;;6.00;4.50;;;14.50;99.90;;;;;;5192767;28;20204;-47
2023/06/10 04:03:53;;;;;;;7.83;5.67;;;14.60;99.90;;;;;;5207823;28;20196;-47
2023/06/10 04:06:25;;;;;;;6.50;4.23;;;14.60;99.90;;;;;;5187091;28;20533;-48
2023/06/10 04:08:56;;;;;;;7.70;4.90;;;14.60;99.90;;;;;;5202993;28;21012;-48
2023/06/10 04:11:27;;;;;;;10.30;5.43;;;14.70;99.90;;;;;;5205524;28;20525;-48
2023/06/10 04:13:57;;;;;;;9.87;5.60;;;14.70;99.90;;;;;;5208219;28;20785;-47
2023/06/10 04:16:28;;;;;;;6.97;5.17;;;14.70;99.90;;;;;;5199237;28;20195;-49
2023/06/10 04:19:00;;;;;;;10.40;5.60;;;14.80;99.90;;;;;;5203024;28;20183;-49
2023/06/10 04:21:31;;;;;;;8.80;5.00;;;14.90;99.90;;;;;;5203320;28;20739;-47
2023/06/10 04:24:01;;;;;;;18.63;5.73;;;14.90;99.90;;;;;;5202980;28;20521;-48
2023/06/10 04:26:33;;;;;;;16.97;5.13;;;15.00;99.90;;;;;;5190036;28;20191;-47
2023/06/10 04:29:04;;;;;;;9.37;5.17;;;15.00;99.90;;;;;;5183521;28;20215;-47
2023/06/10 04:31:34;;;;;;;9.30;4.40;;;15.00;99.90;;;;;;5187064;28;20531;-48
2023/06/10 04:34:05;;;;;;;11.37;5.90;;;15.10;99.90;;;;;;5209412;28;20618;-47
2023/06/10 04:36:36;;;;;;;5.70;4.90;;;15.10;99.90;;;;;;5200351;28;20242;-48
2023/06/10 04:39:06;;;;;;;12.63;5.30;;;15.20;99.90;;;;;;5196844;28;20192;-47
2023/06/10 04:41:37;;;;;;;12.17;4.33;;;15.30;99.90;;;;;;5191717;28;20210;-46
2023/06/10 04:44:07;;;;;;;8.40;5.93;;;15.30;99.90;;;;;;5203776;28;20200;-47
2023/06/10 04:46:39;;;;;;;8.90;5.37;;;15.30;99.90;;;;;;5182582;28;20179;-48
2023/06/10 04:49:09;;;;;;;7.83;5.13;;;15.30;99.90;;;;;;5197689;28;20715;-46
2023/06/10 04:51:40;;;;;;;9.33;5.43;;;15.30;99.90;;;;;;5181230;28;20438;-46
2023/06/10 04:54:10;;;;;;;9.43;5.67;;;15.30;99.90;;;;;;5208794;28;20203;-47
2023/06/10 04:56:41;;;;;;;8.37;5.60;;;15.40;99.90;;;;;;5202679;28;20206;-50
2023/06/10 04:59:11;;;;;;;7.40;5.10;;;15.50;99.90;;;;;;5191835;28;20191;-48
2023/06/10 05:01:42;;;;;;;10.30;5.60;;;15.40;99.90;;;;;;5194005;28;20253;-48
2023/06/10 05:04:13;;;;;;;8.37;5.27;;;15.50;99.90;;;;;;5205646;28;20579;-47
2023/06/10 05:06:43;;;;;;;11.53;5.27;;;15.50;99.90;;;;;;5186790;28;20225;-47
2023/06/10 05:09:14;;;;;;;10.73;5.13;;;15.50;99.90;;;;;;5210918;28;20179;-48
2023/06/10 05:11:44;;;;;;;15.60;6.00;;;15.60;99.90;;;;;;5193776;28;20304;-47
2023/06/10 05:14:19;;;;;;;6.97;4.73;;;15.70;99.90;;;;;;5198988;28;20207;-46
2023/06/10 05:16:49;;;;;;;11.40;6.37;;;15.80;99.90;;;;;;5181817;28;20191;-46
2023/06/10 05:19:21;;;;;;;19.33;6.67;;;15.90;99.90;;;;;;5197222;28;20434;-47
2023/06/10 05:21:51;;;;;;;11.87;5.60;;;16.00;99.90;;;;;;5172419;28;20203;-48
2023/06/10 05:24:22;;;;;;;14.73;5.77;;;16.10;99.90;;;;;;5203034;28;20527;-47
2023/06/10 05:26:53;;;;;;;13.00;5.90;;;16.20;99.90;;;;;;5203586;28;20184;-47
2023/06/10 05:29:24;;;;;;;8.73;5.53;;;16.40;99.90;;;;;;5195216;28;20951;-48
2023/06/10 05:31:56;;;;;;;19.43;5.70;;;16.60;99.90;;;;;;5198203;28;20227;-48
2023/06/10 05:34:27;;;;;;;11.80;5.83;;;17.10;99.90;;;;;;5182041;28;20237;-48
2023/06/10 05:36:58;;;;;;;10.53;5.90;;;18.10;99.90;;;;;;5198983;28;20919;-47
2023/06/10 05:39:28;;;;;;;5.47;4.60;;;19.30;99.90;;;;;;5200731;28;20194;-48
2023/06/10 05:42:01;;;;;;;11.87;4.70;;;20.70;99.90;;;;;;5201478;28;20289;-46
2023/06/10 05:44:31;;;;;;;11.57;4.70;;;22.40;99.90;;;;;;5203302;28;20199;-48
2023/06/10 05:47:02;;;;;;;7.10;4.70;;;22.70;99.90;;;;;;5194819;28;20450;-48
2023/06/10 05:49:33;;;;;;;7.20;4.80;;;23.40;97.20;;;;;;5185854;28;20209;-47
2023/06/10 05:52:04;;;;;;;12.50;5.43;;;24.20;93.50;;;;;;5201127;28;20188;-48
2023/06/10 05:54:35;;;;;;;7.03;4.23;;;24.60;89.10;;;;;;5187654;28;20242;-47
2023/06/10 05:57:05;;;;;;;5.17;4.73;;;25.30;83.50;;;;;;5196138;28;20548;-47
2023/06/10 05:59:36;;;;;;;4.77;3.97;;;26.10;75.10;;;;;;5188046;28;20187;-45
2023/06/10 06:02:07;;;;;;;11.97;5.53;;;26.90;68.80;;;;;;5173091;28;20211;-49
2023/06/10 06:04:37;;;;;;;11.87;4.80;;;26.40;65.20;;;;;;5198987;28;20708;-48
2023/06/10 06:07:08;;;;;;;8.40;4.57;;;26.20;66.80;;;;;;5183439;28;20190;-47
2023/06/10 06:09:39;;;;;;;13.27;4.83;;;26.10;64.80;;;;;;5197141;28;20199;-46
2023/06/10 06:12:10;;;;;;;13.73;4.30;;;24.80;67.30;;;;;;5184316;28;20275;-45
2023/06/10 06:14:41;;;;;;;8.60;5.00;;;24.20;71.20;;;;;;5200764;28;20667;-48
2023/06/10 06:17:12;;;;;;;9.83;4.80;;;24.80;71.00;;;;;;5187196;28;20570;-46
2023/06/10 06:19:43;;;;;;;5.93;3.90;;;24.70;69.40;;;;;;5198345;28;20270;-47
2023/06/10 06:22:14;;;;;;;5.77;5.23;;;24.40;70.00;;;;;;5186526;28;20548;-48
2023/06/10 06:24:44;;;;;;;7.37;4.80;;;23.50;72.00;;;;;;5201111;28;20210;-46
2023/06/10 06:27:15;;;;;;;5.37;4.47;;;22.50;75.90;;;;;;5187899;28;20662;-46
2023/06/10 06:29:46;;;;;;;10.73;5.40;;;21.60;81.20;;;;;;5212738;28;20188;-46
2023/06/10 06:32:17;;;;;;;7.50;5.23;;;21.00;90.10;;;;;;5188011;28;20803;-46
2023/06/10 06:34:49;;;;;;;12.67;5.60;;;20.80;93.60;;;;;;5199356;28;20289;-46
2023/06/10 06:37:24;;;;;;;27.20;5.60;;;20.90;94.50;;;;;;5207234;28;20555;-47
2023/06/10 06:39:55;;;;;;;9.23;6.10;;;21.10;95.20;;;;;;5192314;28;20532;-47
2023/06/10 06:42:26;;;;;;;6.03;5.40;;;21.70;94.30;;;;;;5204799;28;20914;-47
2023/06/10 06:44:56;;;;;;;8.47;5.90;;;22.80;91.10;;;;;;5215446;28;20237;-48
2023/06/10 06:47:27;;;;;;;6.33;4.73;;;22.50;90.00;;;;;;5204983;28;20255;-46
2023/06/10 06:49:57;;;;;;;4.50;4.10;;;22.90;90.00;;;;;;5214143;28;20534;-45
2023/06/10 06:52:28;;;;;;;8.00;4.63;;;23.60;85.40;;;;;;5190597;28;20209;-45
2023/06/10 06:54:59;;;;;;;13.67;6.27;;;23.40;83.40;;;;;;5182969;28;20504;-47
2023/06/10 06:57:30;;;;;;;10.03;4.97;;;23.00;86.60;;;;;;5186408;28;20196;-45
2023/06/10 07:00:00;;;;;;;6.47;5.00;;;22.90;86.40;;;;;;5212241;28;20648;-47
2023/06/10 07:02:32;;;;;;;11.73;5.43;;;22.50;88.20;;;;;;5202961;28;20211;-46
2023/06/10 07:05:03;;;;;;;12.33;6.00;;;22.30;90.00;;;;;;5185196;28;20208;-48
2023/06/10 07:07:34;;;;;;;6.20;5.50;;;22.40;90.30;;;;;;5203478;28;20922;-45
2023/06/10 07:10:05;;;;;;;10.83;5.73;;;22.40;91.10;;;;;;5205087;28;20323;-46
2023/06/10 07:12:36;;;;;;;5.67;4.40;;;24.30;87.60;;;;;;5211551;28;20180;-46
2023/06/10 07:15:07;;;;;;;6.70;4.13;;;26.60;75.30;;;;;;5214789;28;20511;-45
2023/06/10 07:17:37;;;;;;;9.33;4.90;;;28.80;62.40;;;;;;5209334;28;20195;-46
2023/06/10 07:20:08;;;;;;;8.13;4.70;;;30.50;53.90;;;;;;5191313;28;20450;-47
2023/06/10 07:22:40;;;;;;;5.33;4.50;;;31.30;49.80;;;;;;5213052;28;20215;-47
2023/06/10 07:25:11;;;;;;;9.00;6.03;;;31.50;47.20;;;;;;5190907;28;20955;-46
2023/06/10 07:27:42;;;;;;;7.00;3.97;;;30.00;49.00;;;;;;5192052;28;20565;-45
2023/06/10 07:30:12;;;;;;;9.60;5.10;;;30.10;49.50;;;;;;5193103;28;20194;-46
2023/06/10 07:32:43;;;;;;;7.17;4.73;;;31.40;47.10;;;;;;5186750;28;20184;-46
2023/06/10 07:35:14;;;;;;;6.13;4.83;;;31.30;46.60;;;;;;5173583;28;20223;-47
2023/06/10 07:37:45;;;;;;;6.27;4.87;;;30.60;46.70;;;;;;5218576;28;20433;-45
2023/06/10 07:40:16;;;;;;;6.50;4.93;;;28.90;49.40;;;;;;5208911;28;20207;-45
2023/06/10 07:42:46;;;;;;;9.13;5.23;;;27.30;52.40;;;;;;5191136;28;20214;-47
2023/06/10 07:45:17;;;;;;;9.00;5.03;;;25.90;55.20;;;;;;5195234;28;20200;-47
2023/06/10 07:47:47;;;;;;;10.50;4.73;;;24.80;57.80;;;;;;5184671;28;20186;-46
2023/06/10 07:50:18;;;;;;;5.53;4.77;;;24.10;60.70;;;;;;5178814;28;20207;-45
2023/06/10 07:52:49;;;;;;;7.97;5.27;;;23.80;62.60;;;;;;5205012;28;20189;-48
2023/06/10 07:55:20;;;;;;;4.60;4.17;;;23.50;64.60;;;;;;5197464;28;20204;-47
2023/06/10 07:57:50;;;;;;;7.23;5.87;;;23.50;65.90;;;;;;5205301;28;20175;-47
2023/06/10 08:00:21;;;;;;;5.77;4.93;;;23.80;66.30;;;;;;5190533;28;20690;-45
2023/06/10 08:02:52;;;;;;;8.70;5.77;;;24.70;65.60;;;;;;5200684;28;20283;-47
2023/06/10 08:05:23;;;;;;;7.70;4.70;;;26.70;59.80;;;;;;5205086;28;20235;-47
2023/06/10 08:07:53;;;;;;;6.07;4.70;;;29.20;54.10;;;;;;5201345;28;20176;-46
2023/06/10 08:10:24;;;;;;;15.33;4.80;;;30.80;48.70;;;;;;5182281;28;20824;-46
2023/06/10 08:12:55;;;;;;;7.13;4.40;;;31.40;46.50;;;;;;5188437;28;20246;-49
2023/06/10 08:15:25;;;;;;;10.07;5.27;;;30.70;47.80;;;;;;5205250;28;20243;-46
2023/06/10 08:17:56;;;;;;;11.80;5.40;;;31.10;46.50;;;;;;5181876;28;20469;-47
2023/06/10 08:20:27;;;;;;;7.20;4.47;;;31.30;45.50;;;;;;5196156;28;20201;-46
2023/06/10 08:22:57;;;;;;;8.90;5.60;;;30.20;47.10;;;;;;5208282;28;20243;-48
2023/06/10 08:25:28;;;;;;;10.63;5.43;;;28.70;49.20;;;;;;5202864;28;20282;-47
2023/06/10 08:27:58;;;;;;;6.13;5.37;;;27.70;52.00;;;;;;5211255;28;20255;-46
2023/06/10 08:30:30;;;;;;;6.67;4.80;;;28.60;51.00;;;;;;5205452;28;20172;-51
2023/06/10 08:33:00;;;;;;;5.77;5.17;;;30.20;49.10;;;;;;5198902;28;20176;-51
2023/06/10 08:35:31;;;;;;;9.10;4.80;;;31.90;46.00;;;;;;5205481;28;20834;-47
2023/06/10 08:38:02;;;;;;;8.43;4.73;;;32.90;43.20;;;;;;5201868;28;20240;-46
2023/06/10 08:40:33;;;;;;;13.63;5.33;;;32.50;43.00;;;;;;5201284;28;20234;-47
2023/06/10 08:43:07;;;;;;;7.00;4.97;;;31.10;45.00;;;;;;5185604;28;20294;-46
2023/06/10 08:45:38;;;;;;;10.10;5.20;;;29.60;47.80;;;;;;5201937;28;20466;-47
2023/06/10 08:48:10;;;;;;;6.37;4.50;;;28.70;49.70;;;;;;5204603;28;20458;-47
2023/06/10 08:50:41;;;;;;;6.73;4.70;;;28.40;50.20;;;;;;5170028;28;20495;-48
2023/06/10 08:53:18;;;;;;;6.73;4.40;;;27.80;51.00;;;;;;5202688;28;21037;-47
2023/06/10 08:55:51;;;;;;;6.53;4.40;;;26.80;52.80;;;;;;5200848;28;20550;-45
2023/06/10 08:58:22;;;;;;;5.10;4.67;;;26.30;54.20;;;;;;5206441;28;20466;-47
2023/06/10 09:00:53;;;;;;;6.70;4.70;;;25.90;55.20;;;;;;5203515;28;20466;-47
2023/06/10 09:03:25;;;;;;;10.57;4.50;;;25.50;56.50;;;;;;5180822;28;20189;-46
2023/06/10 09:05:57;;;;;;;7.00;4.73;;;24.80;58.10;;;;;;5177012;28;21897;-47
2023/06/10 09:08:28;;;;;;;9.07;5.10;;;24.20;59.70;;;;;;5198553;28;20434;-46
2023/06/10 09:10:59;;;;;;;5.30;4.80;;;23.90;61.30;;;;;;5185078;28;20445;-49
2023/06/10 09:13:30;;;;;;;10.33;5.57;;;23.80;62.00;;;;;;5207832;28;20429;-47
2023/06/10 09:16:01;;;;;;;6.67;4.97;;;23.60;63.20;;;;;;5200737;28;20257;-46
2023/06/10 09:18:34;;;;;;;8.70;5.47;;;23.50;64.20;;;;;;5203619;28;20179;-46
2023/06/10 09:21:05;;;;;;;11.60;5.03;;;23.30;64.70;;;;;;5181337;28;20873;-46
2023/06/10 09:23:37;;;;;;;9.63;5.27;;;22.90;66.10;;;;;;5187198;28;20533;-46
2023/06/10 09:26:11;;;;;;;5.53;5.00;;;22.40;68.60;;;;;;5199549;28;20207;-47
2023/06/10 09:28:44;;;;;;;12.27;6.20;;;22.10;71.40;;;;;;5199054;28;20445;-47
2023/06/10 09:31:18;;;;;;;12.40;5.17;;;22.20;74.00;;;;;;5203741;28;20438;-48
2023/06/10 09:33:49;;;;;;;11.80;5.20;;;22.40;74.40;;;;;;5180412;28;20458;-48
2023/06/10 09:36:23;;;;;;;6.53;4.53;;;22.40;75.40;;;;;;5197205;28;20867;-47
2023/06/10 09:38:57;;;;;;;7.50;5.93;;;22.50;76.60;;;;;;5179941;28;20604;-48
2023/06/10 09:41:40;;;;;;;5.67;5.13;;;22.50;77.90;;;;;;5183552;28;21005;-47
2023/06/10 09:44:17;;;;;;;15.40;6.30;;;22.30;79.90;;;;;;5200276;28;20462;-46
2023/06/10 09:46:50;;;;;;;18.73;5.87;;;22.10;82.40;;;;;;5197512;28;20470;-46
2023/06/10 09:49:20;;;;;;;8.53;5.10;;;21.90;85.40;;;;;;5203440;28;20525;-45
2023/06/10 09:51:53;;;;;;;11.03;6.20;;;21.80;88.00;;;;;;5197105;28;20541;-48
2023/06/10 09:54:25;;;;;;;10.83;6.00;;;21.80;90.40;;;;;;5182931;28;20212;-46
2023/06/10 09:56:58;;;;;;;10.63;5.13;;;21.80;91.20;;;;;;5201146;28;20454;-46
2023/06/10 09:59:33;;;;;;;11.70;6.63;;;21.70;91.90;;;;;;5200427;28;20973;-48
2023/06/10 10:02:04;;;;;;;13.10;5.60;;;21.60;92.90;;;;;;5201480;28;20461;-46
2023/06/10 10:04:36;;;;;;;5.43;4.93;;;21.70;92.80;;;;;;5197996;28;21027;-46
2023/06/10 10:07:08;;;;;;;9.87;4.97;;;21.80;94.20;;;;;;5196872;28;20183;-50
2023/06/10 10:09:40;;;;;;;10.83;5.90;;;21.80;95.80;;;;;;5196187;28;20440;-46
2023/06/10 10:12:14;;;;;;;7.40;5.97;;;21.90;96.10;;;;;;5199497;28;20443;-48
2023/06/10 10:14:49;;;;;;;14.03;5.77;;;22.00;97.30;;;;;;5184160;28;20459;-45
2023/06/10 10:17:20;;;;;;;7.23;5.80;;;22.00;97.10;;;;;;5188641;28;20857;-46
2023/06/10 10:19:57;;;;;;;10.63;5.30;;;22.20;97.00;;;;;;5203207;28;20796;-44
2023/06/10 10:22:36;;;;;;;8.40;6.10;;;22.30;97.00;;;;;;5184235;28;20469;-46
2023/06/10 10:25:13;;;;;;;15.53;5.80;;;22.50;96.20;;;;;;5181652;28;20489;-48
2023/06/10 10:27:51;;;;;;;5.90;5.10;;;22.40;94.80;;;;;;5200247;28;20441;-47
2023/06/10 10:30:23;;;;;;;4.97;4.60;;;22.50;93.60;;;;;;5194676;28;20434;-47
2023/06/10 10:33:26;;;;;;;4.13;3.87;;;22.60;91.30;;;;;;5201084;28;20501;-46
2023/06/10 10:35:58;;;;;;;4.20;3.83;;;22.60;87.30;;;;;;5166318;28;20561;-45
2023/06/10 10:38:29;;;;;;;5.90;3.63;;;22.50;84.00;;;;;;5176592;28;20528;-48
2023/06/10 10:41:00;;;;;;;3.77;3.57;;;22.30;85.80;;;;;;5170284;28;20913;-47
2023/06/10 10:43:32;;;;;;;6.23;4.40;;;22.30;81.70;;;;;;5181162;28;20183;-46
2023/06/10 10:46:12;;;;;;;12.00;4.43;;;22.30;84.00;;;;;;5199434;28;20549;-47
2023/06/10 10:48:44;;;;;;;4.07;3.87;;;22.40;86.30;;;;;;5202650;28;20801;-47
2023/06/10 10:51:15;;;;;;;4.43;3.60;;;22.50;83.60;;;;;;5198021;28;20910;-45
2023/06/10 10:54:13;;;;;;;4.07;3.40;;;22.80;81.10;;;;;;5198176;28;20451;-47
2023/06/10 10:57:23;;;;;;;3.80;3.60;;;22.90;79.10;;;;;;5205132;28;20456;-47
2023/06/10 11:00:01;;;;;;;4.33;3.97;;;23.20;76.50;;;;;;5186322;28;20445;-47
2023/06/10 11:02:38;;;;;;;6.37;3.83;;;23.50;72.40;;;;;;5170389;28;20474;-46
2023/06/10 11:05:16;;;;;;;3.53;3.30;;;23.70;68.70;;;;;;5199538;28;20527;-47
2023/06/10 11:07:55;;;;;;;4.83;4.07;;;23.90;67.20;;;;;;5201329;28;20458;-47
2023/06/10 11:10:31;;;;;;;4.20;3.80;;;24.10;66.80;;;;;;5200665;28;20434;-48
2023/06/10 11:13:15;;;;;;;4.47;4.07;;;24.20;66.70;;;;;;5206683;28;20441;-47
2023/06/10 11:15:49;;;;;;;5.60;5.10;;;24.30;64.30;;;;;;5205825;28;20788;-46
2023/06/10 11:18:31;;;;;;;4.73;3.80;;;24.30;63.20;;;;;;5199360;28;20544;-46
2023/06/10 11:21:04;;;;;;;5.03;4.20;;;24.40;62.30;;;;;;5206960;28;20474;-46
2023/06/10 11:23:39;;;;;;;4.73;4.03;;;24.30;63.20;;;;;;5183785;28;20555;-48
2023/06/10 11:26:32;;;;;;;3.17;2.97;;;24.40;62.70;;;;;;5196032;28;20454;-46
2023/06/10 11:29:05;;;;;;;4.90;3.70;;;24.40;60.40;;;;;;5204156;28;20473;-45
2023/06/10 11:31:39;;;;;;;4.80;3.47;;;24.30;59.70;;;;;;5185488;28;20458;-46
2023/06/10 11:34:10;;;;;;;3.60;3.40;;;24.30;61.20;;;;;;5193747;28;21171;-48
2023/06/10 11:36:45;;;;;;;4.93;4.33;;;24.20;65.50;;;;;;5206587;28;20512;-46
2023/06/10 11:39:17;;;;;;;3.87;3.57;;;24.10;70.10;;;;;;5202004;28;20474;-46
2023/06/10 11:41:50;;;;;;;5.17;4.27;;;24.00;71.10;;;;;;5169913;28;20466;-46
2023/06/10 11:44:21;;;;;;;5.70;5.17;;;23.90;73.20;;;;;;5186844;28;20466;-46
2023/06/10 11:46:51;;;;;;;5.07;4.23;;;23.80;76.90;;;;;;5201825;28;20763;-47
2023/06/10 11:49:22;;;;;;;6.30;5.23;;;23.90;78.30;;;;;;5198640;28;20258;-45
2023/06/10 11:51:53;;;;;;;5.70;5.20;;;24.00;81.00;;;;;;5185216;28;20196;-46
2023/06/10 11:54:23;;;;;;;6.57;5.43;;;24.00;85.00;;;;;;5203941;28;20215;-48
2023/06/10 11:56:59;;;;;;;7.40;5.50;;;23.80;87.50;;;;;;5184956;28;20282;-47
2023/06/10 11:59:30;;;;;;;12.27;6.30;;;23.80;89.50;;;;;;5182008;28;20191;-46
2023/06/10 12:02:00;;;;;;;6.07;5.57;;;23.80;89.20;;;;;;5205143;28;20484;-47
2023/06/10 12:04:31;;;;;;;6.77;5.63;;;23.90;87.30;;;;;;5200900;28;20465;-46
2023/06/10 12:07:02;;;;;;;5.17;4.77;;;24.10;86.40;;;;;;5202365;28;20192;-46
2023/06/10 12:09:33;;;;;;;6.67;4.57;;;24.10;84.90;;;;;;5200213;28;20190;-46
2023/06/10 12:12:05;;;;;;;5.37;4.87;;;24.20;83.60;;;;;;5198836;28;20642;-46
2023/06/10 12:14:54;;;;;;;7.13;5.30;;;24.30;82.50;;;;;;5191764;28;20589;-47
2023/06/10 12:17:35;;;;;;;3.90;3.70;;;24.50;76.70;;;;;;5209785;28;20437;-46
2023/06/10 12:20:08;;;;;;;9.83;4.50;;;24.70;76.70;;;;;;5203710;28;23800;-47
2023/06/10 12:22:43;;;;;;;3.80;3.50;;;24.90;72.90;;;;;;5203063;28;20469;-47
2023/06/10 12:25:14;;;;;;;4.90;4.13;;;25.10;67.40;;;;;;5206791;28;20454;-46
2023/06/10 12:27:55;;;;;;;4.20;4.00;;;25.30;64.20;;;;;;5171421;28;21597;-46
2023/06/10 12:30:27;;;;;;;4.37;4.03;;;25.50;61.00;;;;;;5186918;28;20263;-47
2023/06/10 12:32:58;;;;;;;4.40;3.90;;;25.60;59.90;;;;;;5202452;28;20599;-46
2023/06/10 12:35:28;;;;;;;4.63;4.23;;;25.60;59.20;;;;;;5195362;28;20476;-47
2023/06/10 12:38:00;;;;;;;4.83;4.30;;;25.70;59.20;;;;;;5168241;28;20442;-46
2023/06/10 12:40:41;;;;;;;5.20;4.80;;;25.80;59.90;;;;;;5211767;28;20251;-48
2023/06/10 12:43:12;;;;;;;10.40;5.10;;;25.90;60.60;;;;;;5202125;28;20566;-46
2023/06/10 12:45:44;;;;;;;11.40;5.63;;;26.10;60.70;;;;;;5191281;28;20549;-47
2023/06/10 12:48:23;;;;;;;7.33;4.93;;;26.20;60.80;;;;;;5183879;28;20237;-46
2023/06/10 12:50:56;;;;;;;8.40;5.37;;;26.30;61.40;;;;;;5201172;28;20445;-46
2023/06/10 12:53:27;;;;;;;8.33;5.47;;;26.40;61.80;;;;;;5203129;28;20438;-47
2023/06/10 12:55:57;;;;;;;7.50;6.00;;;26.50;62.70;;;;;;5163788;28;20510;-47
2023/06/10 12:58:28;;;;;;;6.27;5.67;;;26.50;62.90;;;;;;5181659;28;20194;-48
2023/06/10 13:00:59;;;;;;;9.13;6.37;;;26.60;63.30;;;;;;5169007;28;20272;-48
2023/06/10 13:03:29;;;;;;;11.63;6.20;;;26.60;63.40;;;;;;5189701;28;20668;-46
2023/06/10 13:06:00;;;;;;;7.00;6.33;;;26.50;62.00;;;;;;5195736;28;20195;-47
2023/06/10 13:08:31;;;;;;;12.60;7.20;;;26.40;62.40;;;;;;5199632;28;20271;-47